Decoded Metar for LFKC (CALVI in CORSE ISL.) (IATA:CLY) | Meteo·Mobile Aviation Weather
aviador You're here:

LFKC Decoded Metar

CALVI in CORSE ISL.
Report Time2019-07-21 18:00:00
UTC Time2019-07-21 18:31:19
Flight Rules vfr VFR
Wind360° at 05 kt
W.Decomp.*RWY 36: 5.0 kt HW 0.1 kt LCW
Visibility9999 m
Phenomena:N/A
Clouds:N/A
Expected CloudBase > 3,200 ft AGL from Temp-Dew spread
CeilingNone
Temp27°C (ISA +12)
Dew Point19°C (62% RH)
Heat Index28.2°C
QNH1020 hPa
Density Alt1,673 ft
Elevation190 ft
Report Wrong Elevation
Raw Report
LFKC 211800Z AUTO 36005KT CAVOK 27/19 Q1020 NOSIG=

Extra information for LFKC:More info

Metar Taf Metar & Taf Last 4 Metars F.Rules Stats Wind Profile Meteogram Temp Stats Airport Information Weather charts Add Link Nearby VenuesMetar ALERT Operation Metar Decoded Social comments